AQQ10 IFIS: Internet Flight Information System
logo dgac
Viernes 12 de Abril del 2024
Buscar por aerodromo o helipuerto
Ingrese nombre de aeródromo, localidad o designador OACI:
METAR del 12-04-2024 a las 10:00 UTC
Para mayor información visite www.meteochile.gob.cl
METAR SCVM 121000Z 00000KT 9999 OVC060 11/09 Q1016
Visibilidad: 10 km o más
Nubes: Cubierto a 6000 pies sobre el nivel del aeródromo
Temperatura: 11 °C
Rocío: 9 °C
Humedad_relativa: 87%
Presión: 1016 hPa
METAR del 12-04-2024 a las 09:00 UTC
Para mayor información visite www.meteochile.gob.cl
METAR SCVM 120900Z 00000KT 9999 BKN060 10/09 Q1016
Visibilidad: 10 km o más
Nubes: Nublado a 6000 pies sobre el nivel del aeródromo
Temperatura: 10 °C
Rocío: 9 °C
Humedad_relativa: 94%
Presión: 1016 hPa
METAR del 12-04-2024 a las 08:00 UTC
Para mayor información visite www.meteochile.gob.cl
METAR SCVM 120800Z 00000KT 9999 BKN080 10/09 Q1016
Visibilidad: 10 km o más
Nubes: Nublado a 8000 pies sobre el nivel del aeródromo
Temperatura: 10 °C
Rocío: 9 °C
Humedad_relativa: 94%
Presión: 1016 hPa
METAR del 12-04-2024 a las 07:00 UTC
Para mayor información visite www.meteochile.gob.cl
METAR SCVM 120700Z 15003KT 9999 BKN080 10/09 Q1016
Viento: dirección 150 grados, velocidad 3 nudos
Visibilidad: 10 km o más
Nubes: Nublado a 8000 pies sobre el nivel del aeródromo
Temperatura: 10 °C
Rocío: 9 °C
Humedad_relativa: 94%
Presión: 1016 hPa
METAR del 12-04-2024 a las 06:00 UTC
Para mayor información visite www.meteochile.gob.cl
METAR SCVM 120600Z 16003KT 9999 BKN080 10/09 Q1016
Viento: dirección 160 grados, velocidad 3 nudos
Visibilidad: 10 km o más
Nubes: Nublado a 8000 pies sobre el nivel del aeródromo
Temperatura: 10 °C
Rocío: 9 °C
Humedad_relativa: 94%
Presión: 1016 hPa
METAR del 12-04-2024 a las 05:00 UTC
Para mayor información visite www.meteochile.gob.cl
METAR SCVM 120500Z 18003KT 9999 BKN090 09/08 Q1016
Viento: dirección 180 grados, velocidad 3 nudos
Visibilidad: 10 km o más
Nubes: Nublado a 9000 pies sobre el nivel del aeródromo
Temperatura: 9 °C
Rocío: 8 °C
Humedad_relativa: 93%
Presión: 1016 hPa
METAR del 12-04-2024 a las 04:00 UTC
Para mayor información visite www.meteochile.gob.cl
METAR SCVM 120400Z 16003KT CAVOK 10/09 Q1016
Viento: dirección 160 grados, velocidad 3 nudos
Visibilidad: 10 km o más,
    sin nubes bajo los 5.000 pies o bajo del MSA (Mínimo de Seguridad del Aeródromo),
    sin cumulonimbus, y sin fenómenos de tiempo significativo en el aeródromo o alrededores
Temperatura: 10 °C
Rocío: 9 °C
Humedad_relativa: 94%
Presión: 1016 hPa
METAR del 12-04-2024 a las 03:00 UTC
Para mayor información visite www.meteochile.gob.cl
METAR SCVM 120300Z 15004KT 9999 SCT080 11/09 Q1016
Viento: dirección 150 grados, velocidad 4 nudos
Visibilidad: 10 km o más
Nubes: Nubosidad parcial a 8000 pies sobre el nivel del aeródromo
Temperatura: 11 °C
Rocío: 9 °C
Humedad_relativa: 87%
Presión: 1016 hPa
METAR del 12-04-2024 a las 02:00 UTC
Para mayor información visite www.meteochile.gob.cl
METAR SCVM 120200Z 15004KT 9999 BKN080 11/09 Q1017
Viento: dirección 150 grados, velocidad 4 nudos
Visibilidad: 10 km o más
Nubes: Nublado a 8000 pies sobre el nivel del aeródromo
Temperatura: 11 °C
Rocío: 9 °C
Humedad_relativa: 87%
Presión: 1017 hPa
METAR del 12-04-2024 a las 01:00 UTC
Para mayor información visite www.meteochile.gob.cl
METAR SCVM 120100Z 00000KT 9999 BKN080 11/10 Q1017
Visibilidad: 10 km o más
Nubes: Nublado a 8000 pies sobre el nivel del aeródromo
Temperatura: 11 °C
Rocío: 10 °C
Humedad_relativa: 94%
Presión: 1017 hPa